sensor_id;sensor_type;location;lat;lon;timestamp;temperature;humidity
46335;DHT22;32051;48.882;9.210;2023-07-09T10:39:46;34.50;67.20
46335;DHT22;32051;48.882;9.210;2023-07-09T10:42:29;34.50;68.00
46335;DHT22;32051;48.882;9.210;2023-07-09T10:45:08;34.70;68.60
46335;DHT22;32051;48.882;9.210;2023-07-09T10:47:44;34.90;68.20
46335;DHT22;32051;48.882;9.210;2023-07-09T10:50:17;35.10;66.20
46335;DHT22;32051;48.882;9.210;2023-07-09T10:52:46;35.20;64.40
46335;DHT22;32051;48.882;9.210;2023-07-09T10:55:41;35.20;63.60
46335;DHT22;32051;48.882;9.210;2023-07-09T11:08:34;36.50;61.80
46335;DHT22;32051;48.882;9.210;2023-07-09T12:16:42;43.60;48.60
46335;DHT22;32051;48.882;9.210;2023-07-09T12:19:12;44.10;48.00
46335;DHT22;32051;48.882;9.210;2023-07-09T12:21:39;43.60;45.80
46335;DHT22;32051;48.882;9.210;2023-07-09T12:24:23;43.40;48.00
46335;DHT22;32051;48.882;9.210;2023-07-09T12:29:17;44.10;46.80
46335;DHT22;32051;48.882;9.210;2023-07-09T12:31:42;44.40;46.30
46335;DHT22;32051;48.882;9.210;2023-07-09T12:34:14;44.30;47.20
46335;DHT22;32051;48.882;9.210;2023-07-09T12:36:49;44.30;46.80
46335;DHT22;32051;48.882;9.210;2023-07-09T12:39:18;44.40;46.30
46335;DHT22;32051;48.882;9.210;2023-07-09T12:41:47;44.60;45.90
46335;DHT22;32051;48.882;9.210;2023-07-09T12:44:18;44.90;44.10
46335;DHT22;32051;48.882;9.210;2023-07-09T12:46:46;44.90;44.10
46335;DHT22;32051;48.882;9.210;2023-07-09T12:51:53;44.70;44.80
46335;DHT22;32051;48.882;9.210;2023-07-09T12:54:20;44.70;44.70
46335;DHT22;32051;48.882;9.210;2023-07-09T12:56:49;45.10;45.60
46335;DHT22;32051;48.882;9.210;2023-07-09T12:59:25;45.00;43.90
46335;DHT22;32051;48.882;9.210;2023-07-09T13:01:59;45.00;43.60
46335;DHT22;32051;48.882;9.210;2023-07-09T13:04:35;45.10;43.90
46335;DHT22;32051;48.882;9.210;2023-07-09T13:07:01;45.30;43.30
46335;DHT22;32051;48.882;9.210;2023-07-09T13:09:28;45.30;42.80
46335;DHT22;32051;48.882;9.210;2023-07-09T13:11:55;45.10;42.90
46335;DHT22;32051;48.882;9.210;2023-07-09T13:14:29;44.90;43.00
46335;DHT22;32051;48.882;9.210;2023-07-09T13:17:06;44.60;43.10
46335;DHT22;32051;48.882;9.210;2023-07-09T13:19:33;44.30;42.10
46335;DHT22;32051;48.882;9.210;2023-07-09T13:21:59;44.20;43.50
46335;DHT22;32051;48.882;9.210;2023-07-09T13:24:28;44.20;42.60
46335;DHT22;32051;48.882;9.210;2023-07-09T13:26:55;44.40;42.40
46335;DHT22;32051;48.882;9.210;2023-07-09T13:29:25;44.40;41.90
46335;DHT22;32051;48.882;9.210;2023-07-09T13:31:51;44.50;39.40
46335;DHT22;32051;48.882;9.210;2023-07-09T13:34:26;44.50;40.20
46335;DHT22;32051;48.882;9.210;2023-07-09T13:36:53;44.70;40.40
46335;DHT22;32051;48.882;9.210;2023-07-09T13:39:22;44.80;40.70
46335;DHT22;32051;48.882;9.210;2023-07-09T13:41:49;44.90;40.50
46335;DHT22;32051;48.882;9.210;2023-07-09T13:44:18;45.00;40.40
46335;DHT22;32051;48.882;9.210;2023-07-09T13:46:45;45.10;40.80
46335;DHT22;32051;48.882;9.210;2023-07-09T13:49:13;44.90;41.20
46335;DHT22;32051;48.882;9.210;2023-07-09T13:51:40;44.80;41.60
46335;DHT22;32051;48.882;9.210;2023-07-09T13:56:47;44.60;41.00
46335;DHT22;32051;48.882;9.210;2023-07-09T13:59:22;44.10;41.60
46335;DHT22;32051;48.882;9.210;2023-07-09T14:01:51;43.40;41.70
46335;DHT22;32051;48.882;9.210;2023-07-09T14:04:19;43.00;41.10
46335;DHT22;32051;48.882;9.210;2023-07-09T14:09:12;42.30;41.70
46335;DHT22;32051;48.882;9.210;2023-07-09T14:11:44;42.00;41.70
46335;DHT22;32051;48.882;9.210;2023-07-09T14:14:24;41.60;41.90
46335;DHT22;32051;48.882;9.210;2023-07-09T14:16:51;41.40;42.50
46335;DHT22;32051;48.882;9.210;2023-07-09T14:19:19;41.50;42.80
46335;DHT22;32051;48.882;9.210;2023-07-09T14:21:46;41.70;42.50
46335;DHT22;32051;48.882;9.210;2023-07-09T14:34:22;42.10;42.20
46335;DHT22;32051;48.882;9.210;2023-07-09T14:36:49;41.90;42.20
46335;DHT22;32051;48.882;9.210;2023-07-09T14:39:15;41.80;42.40
46335;DHT22;32051;48.882;9.210;2023-07-09T14:41:41;41.70;42.80
46335;DHT22;32051;48.882;9.210;2023-07-09T14:46:48;41.40;43.10
46335;DHT22;32051;48.882;9.210;2023-07-09T14:49:16;41.40;42.90
46335;DHT22;32051;48.882;9.210;2023-07-09T14:51:42;41.50;43.30
46335;DHT22;32051;48.882;9.210;2023-07-09T14:54:25;41.60;43.80
46335;DHT22;32051;48.882;9.210;2023-07-09T14:56:53;41.70;42.50
46335;DHT22;32051;48.882;9.210;2023-07-09T14:59:19;41.60;42.40
46335;DHT22;32051;48.882;9.210;2023-07-09T15:01:45;41.50;42.50
46335;DHT22;32051;48.882;9.210;2023-07-09T15:04:29;41.40;42.20
46335;DHT22;32051;48.882;9.210;2023-07-09T15:06:56;41.40;42.00
46335;DHT22;32051;48.882;9.210;2023-07-09T15:09:24;41.60;42.10
46335;DHT22;32051;48.882;9.210;2023-07-09T15:11:55;41.90;43.10
46335;DHT22;32051;48.882;9.210;2023-07-09T15:16:49;42.20;42.60
46335;DHT22;32051;48.882;9.210;2023-07-09T15:19:20;42.60;41.70
46335;DHT22;32051;48.882;9.210;2023-07-09T15:21:49;42.70;41.30
46335;DHT22;32051;48.882;9.210;2023-07-09T15:26:50;42.70;42.80
46335;DHT22;32051;48.882;9.210;2023-07-09T15:29:18;41.60;43.40
46335;DHT22;32051;48.882;9.210;2023-07-09T15:34:10;40.90;43.50
46335;DHT22;32051;48.882;9.210;2023-07-09T15:36:36;40.00;44.50
46335;DHT22;32051;48.882;9.210;2023-07-09T15:39:03;39.60;44.80
46335;DHT22;32051;48.882;9.210;2023-07-09T15:41:28;39.20;45.40
46335;DHT22;32051;48.882;9.210;2023-07-09T15:43:54;38.90;46.30
46335;DHT22;32051;48.882;9.210;2023-07-09T15:46:21;38.50;46.20
46335;DHT22;32051;48.882;9.210;2023-07-09T15:48:49;38.20;47.30
46335;DHT22;32051;48.882;9.210;2023-07-09T15:51:16;37.80;46.50
46335;DHT22;32051;48.882;9.210;2023-07-09T15:53:41;37.60;47.50
46335;DHT22;32051;48.882;9.210;2023-07-09T15:56:22;37.40;47.20
46335;DHT22;32051;48.882;9.210;2023-07-09T15:58:49;37.20;47.90
46335;DHT22;32051;48.882;9.210;2023-07-09T16:01:17;36.90;48.30
46335;DHT22;32051;48.882;9.210;2023-07-09T16:03:49;36.80;48.80
46335;DHT22;32051;48.882;9.210;2023-07-09T16:06:16;36.70;49.30
46335;DHT22;32051;48.882;9.210;2023-07-09T16:08:42;36.50;49.70
46335;DHT22;32051;48.882;9.210;2023-07-09T16:11:19;36.40;48.90
46335;DHT22;32051;48.882;9.210;2023-07-09T16:13:46;36.30;50.30
46335;DHT22;32051;48.882;9.210;2023-07-09T16:16:18;36.30;48.90
46335;DHT22;32051;48.882;9.210;2023-07-09T16:18:44;36.20;49.50
46335;DHT22;32051;48.882;9.210;2023-07-09T16:21:24;36.00;48.40
46335;DHT22;32051;48.882;9.210;2023-07-09T16:23:51;35.90;49.00
46335;DHT22;32051;48.882;9.210;2023-07-09T16:26:17;35.70;50.40
46335;DHT22;32051;48.882;9.210;2023-07-09T16:28:43;35.60;49.60
46335;DHT22;32051;48.882;9.210;2023-07-09T16:31:09;35.40;49.10
46335;DHT22;32051;48.882;9.210;2023-07-09T16:33:35;35.30;49.60
46335;DHT22;32051;48.882;9.210;2023-07-09T16:36:01;35.20;49.10
46335;DHT22;32051;48.882;9.210;2023-07-09T16:38:32;35.10;50.00
46335;DHT22;32051;48.882;9.210;2023-07-09T16:40:58;35.10;49.70
46335;DHT22;32051;48.882;9.210;2023-07-09T16:43:24;35.10;50.80
46335;DHT22;32051;48.882;9.210;2023-07-09T16:45:49;35.10;51.60
46335;DHT22;32051;48.882;9.210;2023-07-09T16:48:17;35.00;50.60
46335;DHT22;32051;48.882;9.210;2023-07-09T16:50:43;35.00;50.40
46335;DHT22;32051;48.882;9.210;2023-07-09T16:53:14;34.90;50.30
46335;DHT22;32051;48.882;9.210;2023-07-09T16:55:40;34.90;51.50
46335;DHT22;32051;48.882;9.210;2023-07-09T16:58:29;34.80;50.70
46335;DHT22;32051;48.882;9.210;2023-07-09T17:00:55;34.80;51.80
46335;DHT22;32051;48.882;9.210;2023-07-09T17:03:21;34.70;52.30
46335;DHT22;32051;48.882;9.210;2023-07-09T17:05:47;34.70;51.70
46335;DHT22;32051;48.882;9.210;2023-07-09T17:08:13;34.60;51.80
46335;DHT22;32051;48.882;9.210;2023-07-09T17:10:40;34.60;52.20
46335;DHT22;32051;48.882;9.210;2023-07-09T17:13:09;34.60;53.60
46335;DHT22;32051;48.882;9.210;2023-07-09T17:15:38;34.50;52.80
46335;DHT22;32051;48.882;9.210;2023-07-09T17:18:32;34.50;52.30
46335;DHT22;32051;48.882;9.210;2023-07-09T17:21:01;34.40;52.80
46335;DHT22;32051;48.882;9.210;2023-07-09T17:23:28;34.30;53.30
46335;DHT22;32051;48.882;9.210;2023-07-09T17:25:56;34.30;52.70
46335;DHT22;32051;48.882;9.210;2023-07-09T17:28:26;34.30;52.20
46335;DHT22;32051;48.882;9.210;2023-07-09T17:30:54;34.20;52.40
46335;DHT22;32051;48.882;9.210;2023-07-09T17:33:20;34.20;52.10
46335;DHT22;32051;48.882;9.210;2023-07-09T17:35:50;34.10;52.20
46335;DHT22;32051;48.882;9.210;2023-07-09T17:38:19;34.00;52.30
46335;DHT22;32051;48.882;9.210;2023-07-09T17:40:45;34.00;52.20
46335;DHT22;32051;48.882;9.210;2023-07-09T17:43:22;33.90;52.60
46335;DHT22;32051;48.882;9.210;2023-07-09T17:45:49;33.80;52.60
46335;DHT22;32051;48.882;9.210;2023-07-09T17:48:17;33.70;52.90
46335;DHT22;32051;48.882;9.210;2023-07-09T17:50:44;33.50;53.00
46335;DHT22;32051;48.882;9.210;2023-07-09T17:53:22;33.40;53.10
46335;DHT22;32051;48.882;9.210;2023-07-09T17:55:48;33.30;53.20
46335;DHT22;32051;48.882;9.210;2023-07-09T17:58:35;33.20;53.90
46335;DHT22;32051;48.882;9.210;2023-07-09T18:01:04;33.10;54.90
46335;DHT22;32051;48.882;9.210;2023-07-09T18:03:30;32.90;55.50
